Aeroporto :
LOGIN :

Iscrizione | Disclaimer

   EN    FR    IT 

 










Sommario :    VFR   VFR Marginale   IFR   IFR Intensivo   IFR Molto Intensivo
Visibilità : 
Base nubi : 
>= 8 km
>= 3000ft
5 / 8 km
1000 / 3000 ft
1500m / 5 km
500 / 1000 ft
800 / 1500m
200 / 500 ft
< 800m
< 200 ft
Simboli :   Temporali  Nebbia  Neve Forte  Precipitazioni Forti  Vento > 20 kt
SIGMETs :   Varie  Temporali  Ghiacco  Turbolenza  Onda orograficha  Ceneri Vulcaniche






- Altitudine del aeroporto : 266 ft
- Codice IATA : NCL


EGNT - Newcastle

ULTIMO METAR :
  • 200650Z VRB02KT 7000 -RA FEW004 BKN010 12/11 Q1024

METARs OBSOLETI :
  • 200620Z 08002KT 6000 -RA BKN003 OVC010 12/11 Q1024
  • 200550Z 06004KT 6000 BKN003 OVC011 12/11 Q1024
  • 200520Z 05003KT 6000 -DZ BKN002 OVC011 12/11 Q1024 REDZ
  • 200450Z 05004KT 9999 BKN003 OVC013 12/11 Q1024
  • 200420Z AUTO 07004KT 9999 BKN003/// OVC013/// 12/11 Q1024

TAF TAF EGNT
Valido dal 20 a 06 ore il 21 a 06 ore UTC


200454Z 2006/2106 06005KT 9999 BKN010
TEMPO 2006/2011 1400 DZ BKN004
PROB30
TEMPO 2006/2011 BKN001
BECMG 2010/2013 SCT020
PROB30
TEMPO 2100/2106 8000
ATIS : +44 191 214 3400



MetMap, La meteo Aeronautica in un colpo d'occhio ! - Copyright ORBIFLY Dicembre 2007 - Disclaimer

ORBIFLY MET'MAP TEAM :

Programmazione e sviluppo : Alexandra Zaïnal
Concezione : Baudouin d'Aumeries
Aiuto per la programmazione : Marc-Olivier Méhu
Supporto tecnico e logistico : Manuel Goepfert
Aiuto per la traduzione : Arnaldo La Scala

Contatto : metmap@orbifly.com




FONTI E CREDITI :

   NOAA